Flight Track Log - Related Links

Times and Time Zones

All times are in EDT time to prevent confusion due to time zone crossing. See the DAL3793 flight status page for this flight to view local times or setup timezone preferences in your user account.

Time Position Orientation Groundspeed Altitude Reporting Facility
EDT Latitude Longitude Course Direction KTS MPH feet Rate Location/Type
Mon 07:11:50 PM 40.6333 -73.8500 217° Southwest 182 209 2,500  Level New York TRACON
Mon 07:12:50 PM 40.5833 -73.9167 225° Southwest 240 276 4,300 2,100 Climbing New York TRACON
Mon 07:13:00 PM 40.4811 -74.0285 229° Southwest  Level FlightAware Approximate
Mon 07:13:50 PM 40.5167 -73.9667 210° Southwest 267 307 6,700  Level New York TRACON
Mon 07:14:00 PM 40.4229 -74.1158 229° Southwest  Level FlightAware Approximate
Mon 07:14:50 PM 40.4667 -74.0167 217° Southwest 277 319 9,000  Level New York TRACON
Mon 07:15:00 PM 40.3648 -74.2030 232° Southwest  Level FlightAware Approximate
Mon 07:15:50 PM 40.4167 -74.0833 225° Southwest 286 329 10,800  Level New York TRACON
Mon 07:16:00 PM 40.3103 -74.2941 232° Southwest  Level FlightAware Approximate
Mon 07:16:50 PM 40.3667 -74.1833 237° Southwest 334 384 11,800  Level New York TRACON
Mon 07:17:00 PM 40.2525 -74.3808 217° Southwest  Level FlightAware Approximate
Mon 07:17:50 PM 40.3000 -74.2833 229° Southwest 332 382 13,700  Level New York TRACON
Mon 07:19:03 PM 40.2447 -74.4175 242° Southwest 338 389 15,800 1,657 Climbing New York Center
Mon 07:20:04 PM 40.2456 -74.5289 271° West 302 348 17,400 1,377 Climbing New York Center
Mon 07:21:05 PM 40.2628 -74.6361 282° West 324 373 18,600 706 Climbing New York Center
Mon 07:22:03 PM 40.2794 -74.7622 280° West 343 395 18,800 504 Climbing New York Center
Mon 07:23:04 PM 40.2994 -74.9075 280° West 356 410 19,600 1,033 Climbing New York Center
Mon 07:24:05 PM 40.3139 -75.0281 279° West 374 430 20,900 1,059 Climbing New York Center
Mon 07:25:03 PM 40.2944 -75.1603 259° West 369 425 21,700 655 Climbing New York Center
Mon 07:26:04 PM 40.2747 -75.2950 259° West 369 425 22,200 397 Climbing New York Center
Mon 07:27:04 PM 40.2547 -75.4378 260° West 382 440 22,500 298 Climbing New York Center
Mon 07:28:05 PM 40.2322 -75.5806 258° West 396 456 22,800 298 Climbing New York Center
Mon 07:29:05 PM 40.2014 -75.7225 254° West 408 470 23,100 350 Climbing New York Center
Mon 07:30:05 PM 40.1536 -75.8631 246° West 420 483 23,500 807 Climbing New York Center
Mon 07:31:04 PM 40.0919 -75.9861 237° Southwest 420 483 24,700 950 Climbing New York Center
Mon 07:32:05 PM 40.0183 -76.0944 228° Southwest 415 478 25,400 555 Climbing New York Center
Mon 07:33:03 PM 39.9308 -76.1878 219° Southwest 405 466 25,800 504 Climbing New York Center
Mon 07:34:04 PM 39.8386 -76.2836 219° Southwest 412 474 26,400 545 Climbing New York Center
Mon 07:35:04 PM 39.7467 -76.3761 218° Southwest 417 480 26,900 504 Climbing New York Center
Mon 07:36:15 PM 39.6458 -76.4861 220° Southwest 405 466 27,500 500 Climbing Washington Center
Mon 07:37:16 PM 39.5428 -76.5900 218° Southwest 423 487 28,000 492 Climbing Washington Center
Mon 07:38:17 PM 39.4544 -76.6828 219° Southwest 423 487 28,500 545 Climbing Washington Center
Mon 07:39:17 PM 39.3639 -76.7781 219° Southwest 423 487 29,100 559 Climbing Washington Center
Mon 07:40:15 PM 39.2756 -76.8706 219° Southwest 423 487 29,600 454 Climbing Washington Center
Mon 07:41:16 PM 39.1869 -76.9625 219° Southwest 423 487 30,000 197 Climbing Washington Center
Mon 07:42:17 PM 39.0961 -77.0572 219° Southwest 423 487 30,000  Level Washington Center
Mon 07:43:17 PM 39.0033 -77.1514 218° Southwest 429 494 30,000  Level Washington Center
Mon 07:44:16 PM 38.9103 -77.2483 219° Southwest 429 494 30,000  Level Washington Center
Mon 07:45:16 PM 38.8131 -77.3447 218° Southwest 429 494 30,000  Level Washington Center
Mon 07:46:17 PM 38.7156 -77.4461 219° Southwest 435 501 30,000  Level Washington Center
Mon 07:47:15 PM 38.6181 -77.5447 218° Southwest 440 506 30,000  Level Washington Center
Mon 07:48:16 PM 38.5186 -77.6456 218° Southwest 450 518 30,000  Level Washington Center
Mon 07:49:16 PM 38.4356 -77.7333 220° Southwest 450 518 30,000  Level Washington Center
Mon 07:50:17 PM 38.3381 -77.8311 218° Southwest 450 518 30,000  Level Washington Center
Mon 07:51:15 PM 38.2403 -77.9286 218° Southwest 450 518 30,000  Level Washington Center
Mon 07:52:16 PM 38.1386 -78.0075 211° Southwest 445 512 30,000  Level Washington Center
Mon 07:53:16 PM 38.0244 -78.0747 205° Southwest 445 512 30,000  Level Washington Center
Mon 07:54:15 PM 37.9042 -78.1419 204° Southwest 440 506 30,000  Level Washington Center
Mon 07:55:16 PM 37.8069 -78.1992 205° Southwest 440 506 30,000  Level Washington Center
Mon 07:56:16 PM 37.6972 -78.2608 204° Southwest 440 506 30,000  Level Washington Center
Mon 07:57:17 PM 37.5767 -78.3328 205° Southwest 440 506 30,000  Level Washington Center
Mon 07:58:15 PM 37.4708 -78.3969 206° Southwest 435 501 30,000  Level Washington Center
Mon 07:59:16 PM 37.3750 -78.4850 216° Southwest 419 482 30,000  Level Washington Center
Mon 08:00:17 PM 37.3014 -78.5944 230° Southwest 419 482 30,000  Level Washington Center
Mon 08:01:15 PM 37.2256 -78.7061 230° Southwest 424 488 30,000  Level Washington Center
Mon 08:02:15 PM 37.1539 -78.8100 229° Southwest 430 495 30,000  Level Washington Center
Mon 08:03:16 PM 37.0714 -78.9264 228° Southwest 442 509 30,000  Level Washington Center
Mon 08:04:18 PM 36.9931 -79.0428 230° Southwest 447 514 30,000  Level Washington Center
Mon 08:05:15 PM 36.9103 -79.1611 229° Southwest 447 514 30,000  Level Washington Center
Mon 08:06:16 PM 36.8292 -79.2947 233° Southwest 447 514 30,000  Level Washington Center
Mon 08:07:17 PM 36.7419 -79.4100 227° Southwest 452 520 30,000 -545 Level Washington Center
Mon 08:08:17 PM 36.6589 -79.5275 229° Southwest 457 526 28,900 -1,527 Descending Washington Center
Mon 08:10:06 PM 36.5064 -79.7358 228° Southwest 444 511 25,700 -1,775 Descending Atlanta Center
Mon 08:11:06 PM 36.4269 -79.8483 229° Southwest 444 511 23,900 -1,850 Descending Atlanta Center
Mon 08:12:06 PM 36.3372 -79.9742 229° Southwest 444 511 22,000 -950 Descending Atlanta Center
Mon 08:13:06 PM 36.2422 -80.0639 217° Southwest 439 505 22,000 -600 Level Atlanta Center
Mon 08:14:06 PM 36.1428 -80.1511 215° Southwest 439 505 20,800 -1,900 Descending Atlanta Center
Mon 08:15:06 PM 36.0453 -80.2356 215° Southwest 444 511 18,200 -2,400 Descending Atlanta Center
Mon 08:16:06 PM 35.9639 -80.3058 215° Southwest 428 493 16,000 -2,410 Descending Atlanta Center
Mon 08:17:03 PM 35.8744 -80.3844 215° Southwest 361 415 13,500 -1,698 Descending Atlanta Center
Mon 08:17:52 PM 35.8136 -80.4358 214° Southwest 310 357 13,000 -1,049 Descending Atlanta Center
Mon 08:18:46 PM 35.7525 -80.4897 216° Southwest 279 321 11,700 -1,357 Descending Atlanta Center
Mon 08:19:47 PM 35.6806 -80.5311 205° Southwest 288 331 10,400 -1,293 Descending Atlanta Center
Mon 08:20:42 PM 35.6108 -80.5672 203° Southwest 287 330 9,200 -1,721 Descending Atlanta Center
Mon 08:21:49 PM 35.5392 -80.6214 212° Southwest 279 321 6,900 -1,500 Descending Atlanta Center
Mon 08:22:50 PM 35.4781 -80.6697 213° Southwest 271 312 6,000 -1,075 Descending Atlanta Center
Mon 08:24:03 PM 35.4003 -80.7264 211° Southwest 261 300 4,500 -902 Descending Atlanta Center
Mon 08:25:03 PM 35.3431 -80.7747 215° Southwest 248 285 4,000 -500 Descending Atlanta Center

Login

Don't have an account? Register now (free) for customized features, flight alerts, and more!